O' Neill, Nebraska
Current Conditions -  °F | °C
As of 11:35 AM on Tuesday 21 Oct 2014 (Local Time) from KONL Reporting Station
Clear Clear  
Wind Chill: 73°   Ceiling: Unl
Heat Index: 73°   Visibility: 10mi
Dew Point: 47°   Wind: 18mph
Humidity: 39%   Direction: 200°SSW
Pressure: 30.02"   Gusts: 23mph
Location:  42.6164°N, 98.6183°W
Report Text: KONL 211635Z AUTO 20016G20KT 10SM CLR 23/08 A3002 RMK AO2 T02260081
Loading
Personal Weather Stations






























Interactive Weather Map
Tropical Storm Tracking
New forecast layout! Learn more

10-Day Weather Forecast

Advertisements
Track Severe Weather on mobile